.
WxDataArchive / Data Records for 2015-04-07
2015-04-06 April 2015 2015-04-08

Data Records for Tuesday, 07 April 2015

Time	Temp	Chill	HIndex	Humid	Dewpt	 Wind 	HiWind	WindDir	Rain 	Barom
-----	----	-----	------	-----	-----	------	------	-------	-----	-----
00:00	52.6	52.6	52.6	92	50.3	0	0	---	0.00	30.042 
00:05	52.6	52.6	52.6	92	50.3	0	0	---	0.00	30.042 
00:10	52.6	52.6	52.6	92	50.3	0	0	---	0.00	30.042 
00:15	52.6	52.6	52.6	92	50.3	0	0	---	0.00	30.043 
00:20	52.6	52.6	52.6	92	50.3	0	0	---	0.00	30.043 
00:25	52.6	52.6	52.6	92	50.3	0	0	---	0.00	30.043 
00:30	52.5	52.5	52.5	92	50.2	0	1	90	0.00	30.046 
00:35	52.5	52.5	52.5	92	50.2	0	1	90	0.00	30.046 
00:40	52.5	52.5	52.5	92	50.2	0	0	---	0.00	30.046 
00:45	52.5	52.5	52.5	93	50.5	0	1	90	0.00	30.045 
00:50	52.5	52.5	52.5	93	50.5	0	2	90	0.00	30.045 
00:55	52.5	52.5	52.5	93	50.5	0	1	90	0.00	30.045 
01:00	52.3	52.3	52.3	93	50.3	0	0	---	0.00	30.044 
01:05	52.3	52.3	52.3	93	50.3	0	2	90	0.00	30.044 
01:10	52.2	52.2	52.2	93	50.2	0	1	90	0.01	30.044 
01:15	52.2	52.2	52.2	93	50.2	0	1	90	0.00	30.043 
01:20	52.2	52.2	52.2	94	50.5	0	1	90	0.00	30.043 
01:25	52.0	52.0	52.0	94	50.3	0	2	90	0.00	30.043 
01:30	52.0	52.0	52.0	94	50.3	0	1	90	0.00	30.038 
01:35	52.0	52.0	52.0	94	50.3	0	1	90	0.00	30.038 
01:40	51.9	51.9	51.9	94	50.2	0	1	90	0.00	30.038 
01:45	51.9	51.9	51.9	94	50.2	0	2	90	0.00	30.031 
01:50	51.9	51.9	51.9	94	50.2	0	2	90	0.00	30.031 
01:55	51.7	51.7	51.7	94	50.0	1	3	90	0.00	30.031 
02:00	51.7	51.7	51.7	94	50.0	1	3	90	0.00	30.025 
02:05	51.7	51.7	51.7	94	50.0	1	3	90	0.00	30.025 
02:10	51.6	51.6	51.6	94	49.9	1	3	90	0.00	30.025 
02:15	51.6	51.6	51.6	94	49.9	0	2	90	0.00	30.016 
02:20	51.6	51.6	51.6	95	50.2	1	2	90	0.00	30.016 
02:25	51.4	51.4	51.4	95	50.0	1	2	90	0.00	30.016 
02:30	51.4	51.4	51.4	95	50.0	1	3	90	0.00	30.012 
02:35	51.4	51.4	51.4	95	50.0	1	3	90	0.00	30.012 
02:40	51.4	51.4	51.4	95	50.0	1	3	90	0.00	30.012 
02:45	51.4	51.4	51.4	95	50.0	0	2	90	0.00	30.011 
02:50	51.4	51.4	51.4	95	50.0	1	3	90	0.00	30.011 
02:55	51.4	51.4	51.4	95	50.0	1	3	90	0.00	30.011 
03:00	51.4	51.4	51.4	95	50.0	0	2	90	0.00	30.008 
03:05	51.4	51.4	51.4	95	50.0	0	1	90	0.00	30.008 
03:10	51.3	51.3	51.3	95	49.9	0	0	---	0.00	30.008 
03:15	51.3	51.3	51.3	95	49.9	0	1	90	0.00	30.010 
03:20	51.3	51.3	51.3	95	49.9	0	1	90	0.00	30.010 
03:25	51.3	51.3	51.3	95	49.9	0	2	90	0.01	30.010 
03:30	51.3	51.3	51.3	95	49.9	0	0	---	0.01	30.011 
03:35	51.4	51.4	51.4	96	50.3	0	1	90	0.04	30.011 
03:40	51.4	51.4	51.4	96	50.3	0	1	90	0.03	30.011 
03:45	51.4	51.4	51.4	96	50.3	0	1	90	0.03	30.016 
03:50	51.4	51.4	51.4	96	50.3	0	2	90	0.04	30.016 
03:55	51.4	51.4	51.4	96	50.3	0	1	90	0.01	30.016 
04:00	51.6	51.6	51.6	96	50.5	0	0	---	0.01	30.012 
04:05	51.6	51.6	51.6	96	50.5	0	0	---	0.00	30.012 
04:10	51.6	51.6	51.6	96	50.5	0	2	90	0.04	30.012 
04:15	51.7	51.7	51.7	96	50.6	1	2	90	0.03	30.005 
04:20	51.7	51.7	51.7	96	50.6	0	3	90	0.01	30.005 
04:25	51.7	51.7	51.7	96	50.6	0	2	90	0.01	30.005 
04:30	51.9	51.9	51.9	96	50.8	0	2	90	0.00	30.009 
04:35	51.9	51.9	51.9	96	50.8	0	2	90	0.00	30.009 
04:40	51.9	51.9	51.9	96	50.8	1	3	90	0.01	30.009 
04:45	51.9	51.9	51.9	96	50.8	0	1	90	0.00	30.009 
04:50	51.9	51.9	51.9	96	50.8	0	2	90	0.01	30.009 
04:55	51.9	51.9	51.9	96	50.8	4	10	90	0.01	30.009 
05:00	51.9	51.9	51.9	96	50.8	3	6	112	0.01	29.972 
05:05	51.9	51.9	51.9	96	50.8	1	6	90	0.00	29.972 
05:10	51.9	51.9	51.9	96	50.8	1	4	90	0.00	29.972 
05:15	51.9	51.9	51.9	96	50.8	0	3	90	0.00	29.992 
05:20	51.9	51.9	51.9	96	50.8	1	4	90	0.00	29.992 
05:25	51.9	51.9	51.9	96	50.8	1	3	90	0.00	29.992 
05:30	51.9	51.9	51.9	96	50.8	1	3	90	0.00	29.978 
05:35	51.9	51.9	51.9	96	50.8	1	3	90	0.00	29.978 
05:40	51.9	51.9	51.9	96	50.8	0	2	90	0.00	29.978 
05:45	51.9	51.9	51.9	96	50.8	0	1	135	0.00	29.967 
05:50	52.0	52.0	52.0	96	50.9	0	2	135	0.00	29.967 
05:55	52.2	52.2	52.2	96	51.1	0	3	112	0.00	29.967 
06:00	52.2	52.2	52.2	96	51.1	1	3	135	0.00	29.969 
06:05	52.3	52.3	52.3	96	51.2	2	7	90	0.00	29.969 
06:10	52.3	52.3	52.3	96	51.2	2	4	90	0.00	29.969 
06:15	52.3	52.3	52.3	96	51.2	2	4	90	0.00	29.978 
06:20	52.3	52.3	52.3	96	51.2	2	5	90	0.00	29.978 
06:25	52.3	52.3	52.3	96	51.2	1	3	112	0.00	29.978 
06:30	52.3	52.3	52.3	96	51.2	2	6	90	0.00	29.965 
06:35	52.3	52.3	52.3	96	51.2	1	4	90	0.00	29.965 
06:40	52.5	52.5	52.5	96	51.4	1	4	90	0.00	29.965 
06:45	52.5	52.5	52.5	96	51.4	1	3	90	0.00	29.985 
06:50	52.5	52.5	52.5	96	51.4	2	6	90	0.00	29.985 
06:55	52.3	52.3	52.3	96	51.2	3	5	68	0.00	29.985 
07:00	52.3	52.3	52.3	96	51.2	2	5	90	0.00	29.987 
07:05	52.3	52.3	52.3	96	51.2	1	4	90	0.00	29.987 
07:10	52.3	52.3	52.3	96	51.2	0	2	90	0.00	29.987 
07:15	52.3	52.3	52.3	96	51.2	1	4	90	0.00	29.999 
07:20	52.3	52.3	52.3	96	51.2	0	2	90	0.00	29.999 
07:25	52.3	52.3	52.3	96	51.2	1	3	90	0.01	29.999 
07:30	52.3	52.3	52.3	96	51.2	0	3	90	0.00	30.003 
07:35	52.3	52.3	52.3	96	51.2	0	2	90	0.01	30.003 
07:40	52.3	52.3	52.3	96	51.2	1	3	90	0.00	30.003 
07:45	52.3	52.3	52.3	96	51.2	1	4	90	0.00	30.007 
07:50	52.3	52.3	52.3	96	51.2	2	5	90	0.00	30.007 
07:55	52.3	52.3	52.3	96	51.2	3	6	90	0.00	30.007 
08:00	52.3	52.3	52.3	96	51.2	2	6	90	0.00	29.997 
08:05	52.3	52.3	52.3	96	51.2	2	5	90	0.00	29.997 
08:10	52.3	52.3	52.3	96	51.2	1	6	90	0.00	29.997 
08:15	52.3	52.3	52.3	96	51.2	1	5	112	0.00	29.999 
08:20	52.3	52.3	52.3	96	51.2	1	4	112	0.00	29.999 
08:25	52.3	52.3	52.3	96	51.2	0	4	112	0.00	29.999 
08:30	52.3	52.3	52.3	96	51.2	1	3	90	0.00	30.011 
08:35	52.3	52.3	52.3	96	51.2	2	6	112	0.00	30.011 
08:40	52.2	52.2	52.2	96	51.1	1	4	90	0.00	30.011 
08:45	52.2	52.2	52.2	96	51.1	2	6	90	0.01	30.014 
08:50	51.9	51.9	51.9	96	50.8	2	6	112	0.00	30.014 
08:55	51.6	51.6	51.6	96	50.5	3	7	90	0.00	30.014 
09:00	50.8	50.8	50.8	96	49.7	2	7	68	0.01	30.028 
09:05	49.9	49.9	49.9	96	48.8	3	12	112	0.00	30.028 
09:10	49.2	49.2	49.2	96	48.1	2	6	90	0.00	30.028 
09:15	48.8	48.8	48.8	96	47.7	3	13	112	0.00	30.032 
09:20	48.3	48.3	48.3	96	47.2	2	6	112	0.00	30.032 
09:25	48.0	48.0	48.0	96	46.9	3	11	90	0.01	30.032 
09:30	47.7	46.2	47.7	96	46.6	4	10	90	0.00	30.034 
09:35	47.7	47.7	47.7	96	46.6	1	3	68	0.00	30.034 
09:40	47.6	47.6	47.6	96	46.5	2	7	90	0.00	30.034 
09:45	47.6	47.6	47.6	96	46.5	3	7	112	0.00	30.036 
09:50	47.4	47.4	47.4	96	46.3	2	9	112	0.00	30.036 
09:55	47.4	47.4	47.4	96	46.3	3	9	112	0.00	30.036 
10:00	47.6	47.6	47.6	96	46.5	3	10	90	0.00	30.035 
10:05	47.6	47.6	47.6	96	46.5	2	5	90	0.00	30.035 
10:10	47.7	47.7	47.7	96	46.6	3	7	112	0.00	30.035 
10:15	47.7	47.7	47.7	96	46.6	3	9	112	0.00	30.042 
10:20	47.4	45.9	47.4	96	46.3	4	11	112	0.00	30.042 
10:25	47.3	45.8	47.3	96	46.2	4	13	90	0.00	30.042 
10:30	47.1	47.1	47.1	96	46.0	2	7	90	0.01	30.053 
10:35	46.5	46.5	46.5	96	45.4	2	7	45	0.00	30.053 
10:40	46.4	46.4	46.4	96	45.3	2	6	90	0.00	30.053 
10:45	46.4	46.4	46.4	96	45.3	3	9	90	0.00	30.056 
10:50	46.2	46.2	46.2	96	45.1	1	9	68	0.00	30.056 
10:55	46.1	46.1	46.1	96	45.0	2	6	112	0.00	30.056 
11:00	46.0	46.0	46.0	96	44.9	3	11	45	0.01	30.060 
11:05	46.0	44.2	46.0	96	44.9	4	11	112	0.00	30.060 
11:10	46.0	44.2	46.0	96	44.9	4	11	90	0.00	30.060 
11:15	46.0	46.0	46.0	96	44.9	3	9	112	0.00	30.067 
11:20	45.8	45.8	45.8	96	44.7	2	9	90	0.00	30.067 
11:25	45.7	43.9	45.7	96	44.6	4	11	112	0.00	30.067 
11:30	45.7	45.7	45.7	96	44.6	2	7	112	0.00	30.067 
11:35	45.5	45.5	45.5	96	44.4	2	6	112	0.00	30.067 
11:40	45.5	45.5	45.5	96	44.4	1	5	112	0.00	30.067 
11:45	45.2	45.2	45.2	96	44.1	3	14	112	0.00	30.070 
11:50	45.1	45.1	45.1	96	44.0	3	7	90	0.01	30.070 
11:55	45.2	45.2	45.2	96	44.1	2	10	22	0.00	30.070 
12:00	45.1	45.1	45.1	96	44.0	2	8	90	0.01	30.068 
12:05	44.9	42.2	44.9	96	43.8	5	11	112	0.01	30.068 
12:10	44.9	44.9	44.9	96	43.8	2	7	90	0.00	30.068 
12:15	45.1	45.1	45.1	96	44.0	3	10	90	0.00	30.069 
12:20	44.9	43.0	44.9	96	43.8	4	12	112	0.00	30.069 
12:25	44.8	42.1	44.8	96	43.7	5	10	90	0.00	30.069 
12:30	44.9	44.9	44.9	96	43.8	3	10	112	0.00	30.058 
12:35	45.1	45.1	45.1	96	44.0	2	7	90	0.00	30.058 
12:40	45.2	45.2	45.2	96	44.1	3	13	90	0.00	30.058 
12:45	44.9	44.9	44.9	96	43.8	3	13	112	0.00	30.068 
12:50	44.9	44.9	44.9	96	43.8	2	10	112	0.00	30.068 
12:55	44.8	42.9	44.8	96	43.7	4	10	112	0.00	30.068 
13:00	44.8	41.5	44.8	96	43.7	6	12	112	0.00	30.065 
13:05	44.9	44.9	44.9	96	43.8	2	7	90	0.00	30.065 
13:10	44.6	44.6	44.6	96	43.5	2	7	112	0.00	30.065 
13:15	44.6	44.6	44.6	96	43.5	2	7	90	0.00	30.083 
13:20	44.5	42.5	44.5	95	43.2	4	11	112	0.00	30.083 
13:25	44.3	42.3	44.3	96	43.2	4	12	112	0.00	30.083 
13:30	44.2	42.2	44.2	95	42.9	4	12	112	0.00	30.085 
13:35	44.1	41.3	44.1	95	42.8	5	12	90	0.00	30.085 
13:40	44.2	42.2	44.2	95	42.9	4	9	90	0.00	30.085 
13:45	44.2	44.2	44.2	95	42.9	3	11	90	0.00	30.090 
13:50	44.2	44.2	44.2	95	42.9	3	10	112	0.00	30.090 
13:55	44.1	44.1	44.1	95	42.8	2	10	90	0.00	30.090 
14:00	44.1	44.1	44.1	95	42.8	3	7	90	0.00	30.092 
14:05	43.9	43.9	43.9	95	42.6	3	11	90	0.00	30.092 
14:10	43.8	43.8	43.8	95	42.5	3	12	112	0.00	30.092 
14:15	43.8	43.8	43.8	95	42.5	3	11	90	0.00	30.087 
14:20	43.9	43.9	43.9	95	42.6	3	7	90	0.00	30.087 
14:25	43.8	43.8	43.8	95	42.5	3	11	90	0.00	30.087 
14:30	43.9	43.9	43.9	95	42.6	3	9	112	0.00	30.084 
14:35	43.8	41.7	43.8	95	42.5	4	10	112	0.00	30.084 
14:40	43.6	43.6	43.6	95	42.3	1	5	112	0.00	30.084 
14:45	43.8	40.9	43.8	95	42.5	5	12	112	0.00	30.077 
14:50	43.8	41.7	43.8	95	42.5	4	10	112	0.00	30.077 
14:55	43.6	43.6	43.6	95	42.3	3	12	90	0.00	30.077 
15:00	43.6	43.6	43.6	95	42.3	1	4	45	0.00	30.088 
15:05	43.6	43.6	43.6	95	42.3	2	6	90	0.00	30.088 
15:10	43.6	41.5	43.6	95	42.3	4	10	112	0.00	30.088 
15:15	43.8	43.8	43.8	95	42.5	1	5	112	0.00	30.077 
15:20	43.8	43.8	43.8	95	42.5	3	7	112	0.00	30.077 
15:25	43.8	43.8	43.8	95	42.5	3	10	90	0.00	30.077 
15:30	43.6	40.7	43.6	95	42.3	5	14	90	0.00	30.069 
15:35	43.6	40.0	43.6	95	42.3	6	11	90	0.00	30.069 
15:40	43.8	41.7	43.8	95	42.5	4	12	112	0.00	30.069 
15:45	43.8	40.9	43.8	95	42.5	5	15	90	0.00	30.059 
15:50	43.9	43.9	43.9	95	42.6	2	9	90	0.00	30.059 
15:55	43.9	41.1	43.9	95	42.6	5	12	90	0.00	30.059 
16:00	43.9	41.1	43.9	95	42.6	5	11	112	0.00	30.052 
16:05	44.1	44.1	44.1	95	42.8	3	10	90	0.00	30.052 
16:10	43.9	41.1	43.9	95	42.6	5	14	112	0.00	30.052 
16:15	43.9	43.9	43.9	95	42.6	3	11	90	0.00	30.053 
16:20	43.8	43.8	43.8	95	42.5	3	9	90	0.00	30.053 
16:25	43.8	41.7	43.8	95	42.5	4	11	90	0.00	30.053 
16:30	43.6	43.6	43.6	95	42.3	3	9	90	0.00	30.054 
16:35	43.5	43.5	43.5	95	42.2	3	10	112	0.00	30.054 
16:40	43.3	43.3	43.3	95	42.0	3	9	90	0.00	30.054 
16:45	43.3	43.3	43.3	95	42.0	2	9	90	0.00	30.063 
16:50	43.2	40.2	43.2	95	41.9	5	11	112	0.00	30.063 
16:55	43.2	40.2	43.2	95	41.9	5	13	112	0.00	30.063 
17:00	43.1	40.1	43.1	95	41.8	5	14	112	0.00	30.068 
17:05	42.9	39.2	42.9	95	41.6	6	16	112	0.00	30.068 
17:10	42.9	42.9	42.9	95	41.6	3	11	90	0.00	30.068 
17:15	42.6	40.3	42.6	95	41.3	4	11	112	0.00	30.063 
17:20	42.3	40.0	42.3	95	41.0	4	14	90	0.00	30.063 
17:25	42.3	40.0	42.3	95	41.0	4	12	90	0.00	30.063 
17:30	42.1	38.3	42.1	95	40.8	6	14	112	0.00	30.072 
17:35	42.1	39.7	42.1	95	40.8	4	12	90	0.00	30.072 
17:40	41.9	38.0	41.9	95	40.6	6	15	90	0.00	30.072 
17:45	41.9	39.5	41.9	95	40.6	4	12	112	0.00	30.072 
17:50	41.9	38.7	41.9	95	40.6	5	13	90	0.00	30.072 
17:55	41.9	39.5	41.9	95	40.6	4	9	90	0.00	30.072 
18:00	41.8	41.8	41.8	95	40.5	3	9	90	0.00	30.071 
18:05	41.8	41.8	41.8	95	40.5	2	10	90	0.00	30.071 
18:10	41.6	39.2	41.6	95	40.3	4	14	90	0.00	30.071 
18:15	41.5	37.5	41.5	95	40.2	6	16	90	0.00	30.074 
18:20	41.5	38.2	41.5	95	40.2	5	15	112	0.00	30.074 
18:25	41.5	41.5	41.5	95	40.2	3	9	112	0.00	30.074 
18:30	41.3	38.8	41.3	95	40.0	4	14	112	0.00	30.065 
18:35	41.3	41.3	41.3	95	40.0	3	9	112	0.00	30.065 
18:40	41.2	38.7	41.2	95	39.9	4	13	112	0.00	30.065 
18:45	41.3	38.8	41.3	95	40.0	4	7	112	0.00	30.071 
18:50	41.2	37.9	41.2	95	39.9	5	10	90	0.00	30.071 
18:55	41.2	41.2	41.2	95	39.9	2	6	112	0.00	30.071 
19:00	41.2	41.2	41.2	95	39.9	2	6	90	0.00	30.074 
19:05	41.2	41.2	41.2	95	39.9	3	10	90	0.00	30.074 
19:10	41.2	38.7	41.2	95	39.9	4	10	90	0.00	30.074 
19:15	41.2	38.7	41.2	95	39.9	4	12	90	0.00	30.073 
19:20	41.2	41.2	41.2	95	39.9	3	7	90	0.00	30.073 
19:25	41.2	41.2	41.2	95	39.9	1	9	68	0.00	30.073 
19:30	41.1	41.1	41.1	95	39.8	1	5	22	0.00	30.077 
19:35	41.1	41.1	41.1	95	39.8	3	6	90	0.00	30.077 
19:40	41.1	38.6	41.1	95	39.8	4	10	90	0.00	30.077 
19:45	41.1	37.8	41.1	95	39.8	5	12	90	0.00	30.074 
19:50	40.9	40.9	40.9	95	39.6	2	6	112	0.00	30.074 
19:55	40.9	40.9	40.9	95	39.6	2	7	112	0.00	30.074 
20:00	40.9	40.9	40.9	95	39.6	3	8	112	0.00	30.074 
20:05	40.9	40.9	40.9	95	39.6	3	11	68	0.00	30.074 
20:10	40.9	40.9	40.9	95	39.6	3	12	90	0.00	30.074 
20:15	40.9	40.9	40.9	95	39.6	3	12	112	0.00	30.077 
20:20	40.9	40.9	40.9	95	39.6	2	6	90	0.00	30.077 
20:25	40.9	40.9	40.9	95	39.6	2	10	90	0.00	30.077 
20:30	40.9	40.9	40.9	95	39.6	3	12	90	0.00	30.076 
20:35	40.9	40.9	40.9	95	39.6	3	11	112	0.00	30.076 
20:40	40.9	40.9	40.9	95	39.6	3	10	112	0.00	30.076 
20:45	40.9	40.9	40.9	95	39.6	3	12	90	0.00	30.077 
20:50	41.1	41.1	41.1	95	39.8	3	10	90	0.00	30.077 
20:55	40.9	38.4	40.9	95	39.6	4	12	112	0.00	30.077 
21:00	41.1	41.1	41.1	95	39.8	3	8	90	0.00	30.088 
21:05	41.1	38.6	41.1	95	39.8	4	13	90	0.00	30.088 
21:10	41.1	41.1	41.1	95	39.8	3	12	90	0.00	30.088 
21:15	41.1	38.6	41.1	95	39.8	4	13	112	0.00	30.091 
21:20	41.1	41.1	41.1	95	39.8	3	9	112	0.00	30.091 
21:25	41.1	37.8	41.1	95	39.8	5	11	90	0.00	30.091 
21:30	41.1	41.1	41.1	95	39.8	2	6	90	0.00	30.094 
21:35	41.1	41.1	41.1	95	39.8	3	10	112	0.00	30.094 
21:40	41.1	41.1	41.1	95	39.8	3	11	112	0.00	30.094 
21:45	41.1	38.6	41.1	95	39.8	4	9	90	0.00	30.084 
21:50	41.1	37.1	41.1	95	39.8	6	14	112	0.00	30.084 
21:55	41.1	37.8	41.1	95	39.8	5	14	90	0.00	30.084 
22:00	41.1	37.1	41.1	95	39.8	6	14	90	0.00	30.092 
22:05	41.1	38.6	41.1	95	39.8	4	12	90	0.00	30.092 
22:10	40.9	38.4	40.9	95	39.6	4	12	112	0.00	30.092 
22:15	40.9	38.4	40.9	95	39.6	4	12	90	0.00	30.080 
22:20	40.9	38.4	40.9	95	39.6	4	12	90	0.00	30.080 
22:25	40.9	37.5	40.9	95	39.6	5	11	90	0.00	30.080 
22:30	40.9	38.4	40.9	95	39.6	4	12	90	0.00	30.094 
22:35	40.9	40.9	40.9	95	39.6	3	10	90	0.00	30.094 
22:40	40.9	37.5	40.9	95	39.6	5	11	90	0.00	30.094 
22:45	40.9	38.4	40.9	95	39.6	4	8	90	0.00	30.097 
22:50	40.9	40.9	40.9	95	39.6	3	10	90	0.00	30.097 
22:55	40.9	38.4	40.9	95	39.6	4	12	112	0.00	30.097 
23:00	40.8	38.2	40.8	95	39.5	4	12	112	0.00	30.096 
23:05	40.8	38.2	40.8	95	39.5	4	11	112	0.00	30.096 
23:10	40.8	40.8	40.8	95	39.5	3	10	90	0.00	30.096 
23:15	40.8	37.4	40.8	95	39.5	5	10	90	0.00	30.101 
23:20	40.6	36.5	40.6	95	39.3	6	16	90	0.00	30.101 
23:25	40.6	38.0	40.6	95	39.3	4	13	112	0.00	30.101 
23:30	40.6	37.2	40.6	95	39.3	5	12	90	0.00	30.097 
23:35	40.6	40.6	40.6	95	39.3	3	10	112	0.00	30.097 
23:40	40.6	40.6	40.6	95	39.3	2	7	90	0.00	30.097 
23:45	40.6	40.6	40.6	95	39.3	3	7	90	0.00	30.103 
23:50	40.5	40.5	40.5	95	39.2	3	8	90	0.00	30.103 
23:55	40.5	37.9	40.5	93	38.6	4	9	90	0.00	30.103 

CoCoRaHS
IN-AL-39
A2 Web Hosting
Creative Commons License
GoDaddy
search engine by freefind advanced

loaded 2018-11-13 17:10:39 • last modified 2010-11-18 10:43:29
Privacy PolicyDisclaimer
• wx.awcolley.com is powered by PmWiki v.2002016 •
• all content (unless otherwise noted) © 2018 A W Colley